Abilene, Texas
Current Conditions -  °F | °C
As of 8:52 PM on Saturday 22 Nov 2014 (Local Time) from KABI Reporting Station
Clear Clear  
Wind Chill: 13°   Ceiling: Unl
Heat Index: 13°   Visibility: 10mi
Dew Point: 11°   Wind: 8mph
Humidity: 89%   Direction: 170°S
Pressure: 29.76"   Gusts: NA
Location:  32.45°N, 99.74°W
Report Text: KABI 230252Z 17007KT 10SM CLR 13/11 A2976 RMK AO2 SLP061 60000 T01280111 58001
Loading
Personal Weather Stations






























Interactive Weather Map New forecast layout! Learn more

10-Day Weather Forecast

Advertisements
Track Severe Weather on mobile